createdAt,value
2019-04-07T00:00:34.406Z,55.12
2019-04-07T00:03:08.644Z,56.73
2019-04-07T00:05:40.775Z,57.90
2019-04-07T00:08:12.564Z,56.70
2019-04-07T00:10:45.292Z,32.63
2019-04-07T00:13:17.326Z,51.80
2019-04-07T00:15:49.943Z,47.17
2019-04-07T00:18:23.033Z,57.53
2019-04-07T00:20:55.265Z,56.18
2019-04-07T00:23:27.308Z,58.58
2019-04-07T00:26:00.163Z,44.93
2019-04-07T00:28:35.185Z,44.13
2019-04-07T00:31:06.597Z,56.98
2019-04-07T00:33:40.176Z,40.90
2019-04-07T00:36:12.298Z,47.35
2019-04-07T00:38:45.001Z,58.02
2019-04-07T00:41:17.235Z,59.85
2019-04-07T00:43:49.648Z,57.85
2019-04-07T00:46:23.422Z,60.40
2019-04-07T00:48:56.202Z,59.95
2019-04-07T00:51:28.617Z,39.27
2019-04-07T00:54:01.123Z,58.13
2019-04-07T00:56:33.674Z,32.55
2019-04-07T00:59:06.875Z,58.83
2019-04-07T01:01:39.901Z,30.82
2019-04-07T01:04:13.112Z,53.68
2019-04-07T01:06:45.988Z,38.83
2019-04-07T01:09:18.755Z,58.50
2019-04-07T01:11:51.052Z,52.65
2019-04-07T01:14:24.710Z,57.27
2019-04-07T01:16:57.446Z,51.08
2019-04-07T01:19:29.181Z,53.80
2019-04-07T01:22:03.194Z,55.00
2019-04-07T01:24:38.501Z,50.43
2019-04-07T01:27:11.525Z,38.93
2019-04-07T01:29:44.550Z,27.45
2019-04-07T01:32:16.955Z,49.83
2019-04-07T01:34:52.112Z,45.25
2019-04-07T01:37:24.256Z,50.58
2019-04-07T01:39:56.691Z,41.75
2019-04-07T01:42:46.495Z,47.33
2019-04-07T01:45:33.419Z,46.98
2019-04-07T01:48:24.661Z,53.73
2019-04-07T01:51:25.819Z,55.70
2019-04-07T01:54:19.989Z,55.28
2019-04-07T01:57:13.497Z,56.00
2019-04-07T02:00:03.129Z,56.42
2019-04-07T02:02:57.562Z,53.00
2019-04-07T02:05:59.283Z,40.15
2019-04-07T02:08:54.998Z,48.38
2019-04-07T02:11:38.626Z,50.55
2019-04-07T02:14:30.283Z,54.08
2019-04-07T02:17:12.021Z,51.92
2019-04-07T02:20:18.093Z,45.30
2019-04-07T02:23:10.606Z,47.03
2019-04-07T02:25:54.913Z,44.98
2019-04-07T02:28:52.559Z,51.20
2019-04-07T02:31:52.274Z,52.65
2019-04-07T02:34:53.144Z,47.85
2019-04-07T02:37:52.891Z,53.15
2019-04-07T02:40:48.787Z,52.25
2019-04-07T02:43:43.162Z,44.95
2019-04-07T02:46:33.289Z,51.80
2019-04-07T02:49:26.749Z,46.50
2019-04-07T02:52:12.361Z,40.12
2019-04-07T02:54:55.201Z,49.85
2019-04-07T02:57:58.235Z,36.93
2019-04-07T03:00:52.398Z,47.80
2019-04-07T03:03:42.771Z,48.80
2019-04-07T03:06:38.419Z,45.95
2019-04-07T03:09:21.846Z,36.70
2019-04-07T03:12:05.398Z,50.30
2019-04-07T03:14:55.866Z,51.73
2019-04-07T03:17:46.334Z,56.48
2019-04-07T03:20:40.978Z,54.15
2019-04-07T03:23:40.257Z,53.97
2019-04-07T03:26:29.435Z,56.60
2019-04-07T03:29:11.917Z,51.18
2019-04-07T03:32:00.055Z,59.85
2019-04-07T03:34:38.967Z,58.38
2019-04-07T03:37:34.300Z,55.48
2019-04-07T03:40:12.625Z,56.68
2019-04-07T03:42:57.269Z,57.90
2019-04-07T03:45:46.241Z,51.90
2019-04-07T03:48:36.975Z,52.33
2019-04-07T03:51:42.612Z,57.13
2019-04-07T03:54:26.644Z,47.40
2019-04-07T03:57:19.825Z,45.75
2019-04-07T04:00:16.840Z,56.28
2019-04-07T04:03:04.156Z,59.83
2019-04-07T04:05:43.401Z,55.73
2019-04-07T04:08:23.277Z,63.15
2019-04-07T04:11:14.206Z,33.15
2019-04-07T04:14:07.855Z,46.13
2019-04-07T04:16:45.845Z,51.75
2019-04-07T04:19:17.428Z,57.38
2019-04-07T04:21:48.681Z,60.15
2019-04-07T04:24:20.005Z,44.10
2019-04-07T04:26:52.301Z,56.53
2019-04-07T04:29:24.636Z,55.60
2019-04-07T04:31:57.106Z,46.42
2019-04-07T04:34:28.520Z,52.93
2019-04-07T04:37:00.045Z,60.03
2019-04-07T04:39:34.138Z,61.75
2019-04-07T04:42:05.751Z,58.20
2019-04-07T04:44:37.982Z,59.85
2019-04-07T04:47:10.186Z,56.25
2019-04-07T04:49:43.533Z,35.05
2019-04-07T04:52:15.681Z,55.92
2019-04-07T04:54:47.482Z,59.73
2019-04-07T04:57:19.997Z,52.48
2019-04-07T04:59:51.263Z,56.68
2019-04-07T05:02:23.538Z,60.35
2019-04-07T05:04:56.115Z,44.88
2019-04-07T05:07:27.559Z,59.85
2019-04-07T05:09:58.879Z,52.67
2019-04-07T05:12:31.354Z,57.80
2019-04-07T05:15:02.618Z,60.70
2019-04-07T05:17:33.983Z,59.18
2019-04-07T05:20:06.040Z,53.75
2019-04-07T05:22:37.944Z,58.05
2019-04-07T05:25:09.472Z,47.93
2019-04-07T05:27:40.597Z,55.05
2019-04-07T05:30:12.347Z,58.65
2019-04-07T05:32:44.289Z,54.77
2019-04-07T05:35:15.531Z,51.15
2019-04-07T05:37:59.906Z,57.55
2019-04-07T05:40:21.466Z,51.70
2019-04-07T05:42:53.208Z,47.75
2019-04-07T05:45:25.360Z,52.45
2019-04-07T05:47:56.724Z,52.38
2019-04-07T05:50:28.795Z,57.48
2019-04-07T05:53:00.319Z,45.17
2019-04-07T05:55:32.309Z,48.98
2019-04-07T05:58:06.969Z,38.53
2019-04-07T06:00:37.179Z,41.20
2019-04-07T06:03:09.339Z,48.08
2019-04-07T06:05:41.023Z,55.25
2019-04-07T06:08:24.650Z,52.38
2019-04-07T06:10:45.900Z,52.98
2019-04-07T06:13:17.620Z,54.70
2019-04-07T06:15:51.157Z,54.77
2019-04-07T06:18:22.813Z,55.17
2019-04-07T06:20:54.515Z,54.95
2019-04-07T06:23:28.566Z,51.30
2019-04-07T06:25:59.456Z,55.23
2019-04-07T06:28:31.610Z,54.95
2019-04-07T06:31:03.184Z,49.35
2019-04-07T06:33:37.620Z,50.40
2019-04-07T06:36:08.248Z,49.93
2019-04-07T06:38:43.627Z,37.33
2019-04-07T06:41:13.754Z,54.73
2019-04-07T06:43:45.197Z,51.65
2019-04-07T06:46:39.041Z,50.88
2019-04-07T06:49:19.761Z,48.65
2019-04-07T06:52:14.572Z,26.60
2019-04-07T06:55:14.656Z,49.63
2019-04-07T06:58:02.094Z,52.13
2019-04-07T07:00:47.294Z,53.42
2019-04-07T07:03:53.824Z,49.35
2019-04-07T07:06:55.809Z,45.55
2019-04-07T07:11:35.451Z,47.95
2019-04-07T07:14:32.879Z,35.63
2019-04-07T07:17:27.879Z,47.30
2019-04-07T07:20:21.789Z,46.28
2019-04-07T07:23:00.444Z,46.55
2019-04-07T07:25:33.060Z,42.10
2019-04-07T07:28:04.470Z,44.45
2019-04-07T07:30:36.114Z,42.23
2019-04-07T07:33:09.990Z,41.90
2019-04-07T07:35:40.979Z,28.17
2019-04-07T07:38:12.626Z,44.83
2019-04-07T07:40:44.988Z,40.83
2019-04-07T07:43:17.614Z,47.88
2019-04-07T07:45:48.893Z,47.35
2019-04-07T07:48:20.800Z,43.78
2019-04-07T07:50:53.735Z,44.80
2019-04-07T07:53:28.115Z,44.18
2019-04-07T07:55:58.425Z,43.00
2019-04-07T07:58:32.622Z,43.83
2019-04-07T08:01:03.301Z,43.40
2019-04-07T08:03:35.184Z,44.50
2019-04-07T08:06:08.342Z,45.48
2019-04-07T08:08:39.696Z,44.20
2019-04-07T08:11:11.232Z,44.83
2019-04-07T08:13:44.984Z,44.63
2019-04-07T08:16:16.282Z,44.08
2019-04-07T08:18:47.753Z,44.05
2019-04-07T08:21:20.158Z,42.17
2019-04-07T08:23:52.396Z,43.38
2019-04-07T08:26:25.099Z,43.05
2019-04-07T08:28:56.628Z,41.05
2019-04-07T08:31:29.277Z,41.70
2019-04-07T08:34:01.556Z,39.98
2019-04-07T08:36:33.833Z,40.40
2019-04-07T08:39:18.534Z,42.48
2019-04-07T08:41:41.641Z,40.33
2019-04-07T08:44:13.152Z,38.92
2019-04-07T08:46:44.677Z,35.03
2019-04-07T08:49:17.138Z,33.55
2019-04-07T08:51:48.377Z,39.15
2019-04-07T08:54:19.957Z,36.65
2019-04-07T08:56:52.018Z,35.43
2019-04-07T08:59:23.556Z,39.05
2019-04-07T09:01:57.061Z,36.95
2019-04-07T09:04:28.467Z,38.42
2019-04-07T09:07:02.189Z,35.80
2019-04-07T09:09:36.887Z,37.38
2019-04-07T09:12:06.000Z,37.45
2019-04-07T09:14:39.716Z,32.75
2019-04-07T09:17:32.217Z,33.10
2019-04-07T09:20:29.199Z,34.27
2019-04-07T09:23:20.054Z,26.70
2019-04-07T09:26:11.781Z,35.15
2019-04-07T09:29:10.488Z,22.40
2019-04-07T09:31:56.357Z,44.60
2019-04-07T09:34:50.546Z,23.42
2019-04-07T09:37:26.223Z,28.07
2019-04-07T09:40:06.843Z,22.73
2019-04-07T09:42:47.429Z,31.75
2019-04-07T09:45:38.596Z,27.27
2019-04-07T09:48:21.011Z,24.07
2019-04-07T09:51:11.146Z,21.10
2019-04-07T09:54:10.025Z,45.25
2019-04-07T09:57:03.426Z,42.03
2019-04-07T09:59:53.380Z,31.52
2019-04-07T10:02:43.721Z,40.80
2019-04-07T10:05:32.718Z,38.67
2019-04-07T10:08:22.892Z,41.02
2019-04-07T10:11:12.850Z,45.03
2019-04-07T10:14:05.675Z,45.83
2019-04-07T10:16:57.400Z,31.70
2019-04-07T10:19:47.526Z,36.95
2019-04-07T10:22:35.011Z,44.25
2019-04-07T10:25:26.873Z,23.40
2019-04-07T10:28:22.379Z,47.35
2019-04-07T10:31:13.830Z,38.17
2019-04-07T10:34:08.077Z,44.88
2019-04-07T10:37:03.679Z,31.70
2019-04-07T10:40:33.365Z,35.83
2019-04-07T10:43:08.508Z,35.52
2019-04-07T10:45:45.926Z,23.77
2019-04-07T10:48:33.325Z,37.67
2019-04-07T10:51:47.672Z,32.75
2019-04-07T10:54:52.476Z,40.28
2019-04-07T10:57:31.198Z,45.38
2019-04-07T11:00:21.416Z,35.33
2019-04-07T11:03:06.466Z,40.50
2019-04-07T11:05:55.358Z,30.00
2019-04-07T11:08:44.322Z,32.70
2019-04-07T11:11:49.098Z,30.77
2019-04-07T11:14:44.422Z,18.87
2019-04-07T11:17:38.298Z,41.65
2019-04-07T11:20:17.880Z,26.02
2019-04-07T11:23:16.582Z,41.60
2019-04-07T11:26:05.460Z,38.92
2019-04-07T11:28:51.165Z,33.23
2019-04-07T11:31:30.965Z,23.80
2019-04-07T11:34:27.107Z,28.10
2019-04-07T11:37:20.021Z,41.92
2019-04-07T11:40:10.763Z,33.58
2019-04-07T11:43:04.425Z,24.80
2019-04-07T11:46:03.566Z,28.77
2019-04-07T11:48:52.310Z,40.30
2019-04-07T11:51:32.473Z,38.38
2019-04-07T11:54:24.132Z,23.75
2019-04-07T11:57:21.531Z,25.88
2019-04-07T12:00:01.170Z,28.38
2019-04-07T12:02:51.917Z,37.83
2019-04-07T12:05:55.139Z,24.43
2019-04-07T12:08:39.369Z,31.93
2019-04-07T12:11:48.287Z,21.35
2019-04-07T12:14:33.926Z,33.55
2019-04-07T12:17:25.610Z,43.65
2019-04-07T12:20:15.208Z,42.08
2019-04-07T12:23:22.921Z,38.58
2019-04-07T12:26:05.159Z,37.33
2019-04-07T12:28:47.591Z,41.05
2019-04-07T12:31:43.448Z,39.45
2019-04-07T12:34:45.842Z,25.20
2019-04-07T12:37:42.396Z,28.10
2019-04-07T12:40:34.544Z,32.80
2019-04-07T12:43:13.195Z,27.05
2019-04-07T12:45:53.713Z,29.77
2019-04-07T12:48:46.949Z,20.52
2019-04-07T12:51:42.976Z,30.62
2019-04-07T12:54:22.214Z,38.17
2019-04-07T12:57:26.174Z,31.40
2019-04-07T13:00:23.924Z,38.05
2019-04-07T13:03:13.080Z,35.78
2019-04-07T13:06:08.674Z,24.65
2019-04-07T13:08:58.162Z,34.18
2019-04-07T13:11:40.120Z,34.33
2019-04-07T13:14:41.304Z,34.92
2019-04-07T13:17:41.022Z,27.98
2019-04-07T13:20:33.283Z,34.75
2019-04-07T13:23:37.271Z,27.98
2019-04-07T13:26:30.246Z,35.80
2019-04-07T13:29:20.531Z,35.50
2019-04-07T13:32:00.157Z,19.27
2019-04-07T13:34:49.886Z,27.37
2019-04-07T13:37:27.164Z,35.38
2019-04-07T13:40:20.342Z,34.08
2019-04-07T13:43:04.251Z,36.75
2019-04-07T13:45:53.940Z,24.98
2019-04-07T13:48:51.551Z,27.48
2019-04-07T13:51:40.877Z,27.60
2019-04-07T13:54:27.771Z,35.83
2019-04-07T13:57:22.228Z,31.37
2019-04-07T14:00:15.848Z,21.73
2019-04-07T14:03:08.356Z,21.50
2019-04-07T14:06:11.321Z,31.55
2019-04-07T14:09:02.585Z,27.20
2019-04-07T14:14:45.345Z,23.95
2019-04-07T14:17:41.891Z,31.50
2019-04-07T14:20:22.616Z,31.10
2019-04-07T14:23:12.167Z,24.40
2019-04-07T14:26:05.713Z,22.55
2019-04-07T14:28:56.537Z,28.95
2019-04-07T14:31:43.142Z,22.42
2019-04-07T14:34:41.301Z,15.13
2019-04-07T14:37:40.831Z,29.23
2019-04-07T14:40:32.135Z,19.07
2019-04-07T14:43:22.289Z,24.63
2019-04-07T14:45:59.148Z,33.28
2019-04-07T14:49:00.079Z,33.67
2019-04-07T14:51:42.460Z,29.35
2019-04-07T14:54:37.740Z,34.80
2019-04-07T14:57:19.097Z,33.23
2019-04-07T15:00:07.841Z,34.65
2019-04-07T15:02:41.721Z,29.45
2019-04-07T15:05:18.567Z,34.98
2019-04-07T15:08:12.421Z,35.70
2019-04-07T15:10:47.322Z,38.13
2019-04-07T15:13:27.967Z,33.95
2019-04-07T15:15:57.215Z,36.53
2019-04-07T15:18:28.693Z,37.08
2019-04-07T15:21:00.330Z,21.35
2019-04-07T15:23:33.118Z,35.60
2019-04-07T15:26:05.329Z,28.23
2019-04-07T15:28:37.230Z,35.78
2019-04-07T15:31:08.647Z,25.57
2019-04-07T15:33:40.043Z,27.27
2019-04-07T15:36:12.796Z,35.78
2019-04-07T15:38:44.220Z,28.12
2019-04-07T15:41:18.308Z,14.58
2019-04-07T15:43:50.036Z,30.77
2019-04-07T15:46:22.510Z,28.60
2019-04-07T15:48:55.898Z,29.18
2019-04-07T15:51:28.296Z,25.15
2019-04-07T15:54:00.661Z,25.62
2019-04-07T15:56:32.564Z,23.15
2019-04-07T15:59:04.326Z,30.77
2019-04-07T16:01:36.087Z,35.40
2019-04-07T16:04:09.615Z,35.90
2019-04-07T16:06:41.897Z,36.30
2019-04-07T16:09:29.102Z,27.80
2019-04-07T16:11:49.641Z,29.48
2019-04-07T16:14:21.910Z,35.90
2019-04-07T16:16:53.722Z,35.23
2019-04-07T16:19:37.351Z,34.75
2019-04-07T16:21:58.248Z,34.00
2019-04-07T16:24:31.065Z,34.20
2019-04-07T16:27:05.474Z,37.33
2019-04-07T16:29:36.473Z,35.92
2019-04-07T16:32:08.145Z,35.58
2019-04-07T16:34:42.174Z,33.42
2019-04-07T16:37:12.386Z,34.48
2019-04-07T16:39:44.531Z,31.10
2019-04-07T16:42:16.054Z,36.73
2019-04-07T16:44:48.340Z,36.35
2019-04-07T16:47:24.439Z,35.85
2019-04-07T16:49:52.686Z,35.45
2019-04-07T16:52:24.421Z,33.55
2019-04-07T16:54:56.008Z,34.88
2019-04-07T16:57:31.036Z,34.15
2019-04-07T17:00:01.562Z,36.45
2019-04-07T17:02:33.693Z,36.28
2019-04-07T17:05:05.792Z,39.00
2019-04-07T17:07:38.224Z,39.15
2019-04-07T17:10:09.826Z,37.28
2019-04-07T17:12:41.224Z,37.83
2019-04-07T17:15:13.532Z,38.08
2019-04-07T17:17:46.535Z,39.05
2019-04-07T17:20:18.961Z,36.28
2019-04-07T17:22:51.096Z,33.58
2019-04-07T17:25:22.890Z,36.13
2019-04-07T17:27:56.019Z,37.38
2019-04-07T17:30:28.993Z,30.82
2019-04-07T17:33:03.294Z,37.00
2019-04-07T17:35:35.581Z,37.45
2019-04-07T17:38:08.604Z,37.98
2019-04-07T17:40:49.227Z,36.93
2019-04-07T17:43:55.118Z,34.27
2019-04-07T17:46:37.379Z,37.60
2019-04-07T17:49:32.946Z,39.30
2019-04-07T17:52:21.825Z,34.43
2019-04-07T17:55:25.265Z,34.88
2019-04-07T17:58:16.020Z,38.73
2019-04-07T18:01:20.616Z,36.45
2019-04-07T18:04:16.151Z,34.48
2019-04-07T18:07:16.356Z,31.57
2019-04-07T18:10:10.107Z,30.05
2019-04-07T18:12:49.816Z,35.65
2019-04-07T18:15:38.312Z,32.28
2019-04-07T18:18:41.882Z,37.60
2019-04-07T18:21:46.871Z,36.10
2019-04-07T18:24:39.427Z,35.43
2019-04-07T18:27:34.190Z,35.35
2019-04-07T18:30:23.221Z,36.98
2019-04-07T18:33:06.642Z,35.43
2019-04-07T18:35:56.095Z,33.10
2019-04-07T18:38:49.653Z,36.77
2019-04-07T18:41:34.758Z,37.30
2019-04-07T18:44:23.942Z,37.08
2019-04-07T18:47:23.359Z,37.25
2019-04-07T18:50:26.839Z,36.30
2019-04-07T18:53:17.835Z,38.15
2019-04-07T18:56:26.028Z,34.60
2019-04-07T18:59:17.110Z,38.15
2019-04-07T19:02:14.072Z,37.35
2019-04-07T19:05:03.891Z,35.33
2019-04-07T19:07:48.544Z,36.98
2019-04-07T19:10:42.496Z,36.93
2019-04-07T19:13:27.006Z,38.15
2019-04-07T19:16:19.024Z,37.03
2019-04-07T19:19:21.393Z,41.10
2019-04-07T19:22:18.878Z,40.78
2019-04-07T19:25:09.267Z,40.65
2019-04-07T19:28:00.043Z,39.67
2019-04-07T19:30:59.269Z,41.00
2019-04-07T19:34:07.849Z,38.23
2019-04-07T19:36:49.928Z,42.03
2019-04-07T19:39:53.087Z,40.98
2019-04-07T19:42:43.635Z,35.88
2019-04-07T19:45:41.565Z,41.95
2019-04-07T19:48:30.940Z,35.58
2019-04-07T19:51:29.307Z,42.45
2019-04-07T19:54:27.320Z,41.95
2019-04-07T19:57:15.432Z,44.00
2019-04-07T19:59:57.033Z,43.58
2019-04-07T20:03:09.645Z,45.52
2019-04-07T20:05:53.370Z,43.33
2019-04-07T20:08:34.548Z,42.73
2019-04-07T20:11:28.461Z,43.68
2019-04-07T20:14:13.336Z,45.10
2019-04-07T20:16:59.866Z,33.60
2019-04-07T20:19:51.345Z,42.05
2019-04-07T20:22:35.774Z,44.93
2019-04-07T20:25:20.201Z,43.87
2019-04-07T20:28:30.248Z,43.78
2019-04-07T20:31:26.475Z,42.83
2019-04-07T20:34:16.636Z,42.15
2019-04-07T20:37:26.681Z,46.70
2019-04-07T20:40:22.188Z,41.88
2019-04-07T20:43:01.078Z,46.83
2019-04-07T20:45:49.129Z,47.35
2019-04-07T20:48:46.808Z,49.48
2019-04-07T20:51:28.361Z,52.88
2019-04-07T20:54:24.633Z,47.88
2019-04-07T20:57:07.533Z,53.78
2019-04-07T21:00:03.667Z,53.42
2019-04-07T21:03:06.467Z,52.27
2019-04-07T21:05:42.001Z,50.12
2019-04-07T21:08:38.764Z,45.85
2019-04-07T21:11:24.089Z,50.35
2019-04-07T21:14:17.185Z,52.75
2019-04-07T21:17:10.754Z,52.45
2019-04-07T21:20:05.407Z,49.75
2019-04-07T21:23:02.802Z,49.73
2019-04-07T21:25:55.832Z,44.65
2019-04-07T21:28:47.205Z,37.90
2019-04-07T21:31:41.316Z,48.50
2019-04-07T21:34:29.589Z,41.42
2019-04-07T21:37:19.825Z,34.25
2019-04-07T21:40:04.200Z,44.30
2019-04-07T21:43:00.536Z,39.55
2019-04-07T21:45:49.849Z,42.90
2019-04-07T21:48:45.938Z,34.70
2019-04-07T21:51:52.665Z,43.20
2019-04-07T21:54:46.996Z,39.98
2019-04-07T21:57:55.338Z,27.50
2019-04-07T22:00:43.326Z,39.88
2019-04-07T22:03:46.187Z,48.52
2019-04-07T22:06:32.099Z,45.00
2019-04-07T22:09:15.898Z,47.90
2019-04-07T22:11:45.943Z,44.23
2019-04-07T22:14:17.074Z,52.55
2019-04-07T22:16:48.969Z,51.42
2019-04-07T22:19:21.075Z,50.85
2019-04-07T22:21:55.759Z,52.85
2019-04-07T22:24:26.327Z,55.55
2019-04-07T22:26:57.639Z,51.35
2019-04-07T22:29:28.861Z,48.83
2019-04-07T22:32:00.070Z,52.30
2019-04-07T22:34:32.653Z,51.88
2019-04-07T22:37:04.838Z,56.37
2019-04-07T22:39:36.110Z,56.83
2019-04-07T22:42:07.301Z,57.30
2019-04-07T22:44:38.521Z,54.95
2019-04-07T22:48:16.533Z,55.05
2019-04-07T22:50:47.746Z,51.90
2019-04-07T22:53:22.312Z,55.78
2019-04-07T22:55:52.712Z,52.10
2019-04-07T22:58:24.284Z,54.58
2019-04-07T23:00:55.559Z,59.25
2019-04-07T23:03:27.153Z,56.73
2019-04-07T23:05:59.041Z,51.50
2019-04-07T23:08:30.319Z,55.28
2019-04-07T23:11:02.200Z,58.73
2019-04-07T23:13:33.512Z,55.25
2019-04-07T23:16:10.538Z,54.00
2019-04-07T23:18:40.736Z,46.48
2019-04-07T23:21:12.106Z,55.70
2019-04-07T23:23:43.394Z,49.77
2019-04-07T23:26:14.563Z,47.25
2019-04-07T23:28:47.063Z,52.95
2019-04-07T23:31:19.438Z,53.33
2019-04-07T23:33:53.354Z,48.38
2019-04-07T23:36:24.784Z,47.50
2019-04-07T23:38:55.992Z,46.10
2019-04-07T23:41:27.793Z,37.50
2019-04-07T23:43:59.065Z,43.63
2019-04-07T23:46:30.341Z,47.78
2019-04-07T23:49:01.649Z,49.50
2019-04-07T23:51:32.855Z,40.85
2019-04-07T23:54:09.167Z,48.15
2019-04-07T23:56:41.806Z,37.45
2019-04-07T23:59:16.790Z,33.38
